Carpe Diem III — FMAV — position and weather

sailwx.info

Track history (hours):
 
Tides and Currents Weather Stations Pressure Air Temp Water Temp Dewpoint Dewpoint Depression Visibility Wind Speed Wind Dir Waves Ship Positions

Carpe Diem III

Last reported at 2018-May-21 15:10 UTC. Time now 2018-May-22 18:01 UTC.
Position N 47°33' W 002°51'.

Length 13 m.

Type: Pleasure craft. MMSI: 228191700.

Date/timePositionNaut miles runAvg speedWind from/ knotsBaromVisibWave heightAir tempDewpointWater temp
2018-May-21 15:10N 47°33' W 002°51'0 0.0
2018-May-21 14:58N 47°33' W 002°51'0 0.0
2018-May-21 14:28N 47°33' W 002°51'0 0.0
2018-May-21 13:58N 47°33' W 002°51'0 0.0
2018-May-21 13:28N 47°33' W 002°51'2 3.3
2018-May-21 13:00N 47°34' W 002°53'2 3.2
2018-May-21 12:30N 47°34' W 002°55'2 4.8
2018-May-21 12:00N 47°31' W 002°56'3 5.9
2018-May-21 11:30N 47°28' W 002°56'4 0.1
2018-May-19 11:04N 47°25' W 002°56'1 4.7
2018-May-19 10:56N 47°25' W 002°56'1 3.4
2018-May-19 10:30N 47°26' W 002°57'2 3.4
2018-May-19 10:00N 47°28' W 002°57'2 4.1
2018-May-19 09:30N 47°30' W 002°56'2 4.7
2018-May-19 09:00N 47°32' W 002°55'3 4.9
2018-May-19 08:29N 47°34' W 002°52'1 1.7
2018-May-19 07:54N 47°33' W 002°51'  
2018-May-12 18:45N 47°33' W 002°51'0 0.0
2018-May-12 18:30N 47°33' W 002°51'0 0.0
2018-May-12 17:54N 47°33' W 002°51'0 0.0
2018-May-12 17:30N 47°33' W 002°51'2 3.4
2018-May-12 17:00N 47°34' W 002°52'2 3.9
2018-May-12 16:29N 47°36' W 002°51'0 0.0
2018-May-12 15:56N 47°36' W 002°51'0 0.0
2018-May-12 15:23N 47°36' W 002°51'0 0.0
2018-May-12 14:59N 47°36' W 002°51'0 0.0
2018-May-12 14:29N 47°36' W 002°51'0 0.0
2018-May-12 13:59N 47°36' W 002°51'0 0.0
2018-May-12 13:26N 47°36' W 002°51'0 0.0
2018-May-12 12:59N 47°36' W 002°51'0 0.0
2018-May-12 12:29N 47°36' W 002°51'0 0.0
2018-May-12 11:56N 47°36' W 002°51'0 0.0
2018-May-12 11:26N 47°36' W 002°51'1 2.9
2018-May-12 11:00N 47°35' W 002°52'4 7.4
2018-May-12 10:30N 47°32' W 002°56'4 7.6
2018-May-12 09:58N 47°29' W 002°59'3 6.4
2018-May-12 09:30N 47°27' W 003°02'3 6.4
2018-May-12 09:00N 47°25' W 003°06'4 6.8
2018-May-12 08:27N 47°23' W 003°11'  
Track history (hours):
 
Tides and Currents Weather Stations Pressure Air Temp Water Temp Dewpoint Dewpoint Depression Visibility Wind Speed Wind Dir Waves Ship Positions

Carpe Diem III

Last reported at 2018-May-21 15:10 UTC. Time now 2018-May-22 18:01 UTC.
Position N 47°33' W 002°51'.

Length 13 m.

Type: Pleasure craft. MMSI: 228191700.

Date/timePositionNaut miles runAvg speedWind from/ knotsBaromVisibWave heightAir tempDewpointWater temp
2018-May-21 15:10N 47°33' W 002°51'0 0.0
2018-May-21 14:58N 47°33' W 002°51'0 0.0
2018-May-21 14:28N 47°33' W 002°51'0 0.0
2018-May-21 13:58N 47°33' W 002°51'0 0.0
2018-May-21 13:28N 47°33' W 002°51'2 3.3
2018-May-21 13:00N 47°34' W 002°53'2 3.2
2018-May-21 12:30N 47°34' W 002°55'2 4.8
2018-May-21 12:00N 47°31' W 002°56'3 5.9
2018-May-21 11:30N 47°28' W 002°56'4 0.1
2018-May-19 11:04N 47°25' W 002°56'1 4.7
2018-May-19 10:56N 47°25' W 002°56'1 3.4
2018-May-19 10:30N 47°26' W 002°57'2 3.4
2018-May-19 10:00N 47°28' W 002°57'2 4.1
2018-May-19 09:30N 47°30' W 002°56'2 4.7
2018-May-19 09:00N 47°32' W 002°55'3 4.9
2018-May-19 08:29N 47°34' W 002°52'1 1.7
2018-May-19 07:54N 47°33' W 002°51'  
2018-May-12 18:45N 47°33' W 002°51'0 0.0
2018-May-12 18:30N 47°33' W 002°51'0 0.0
2018-May-12 17:54N 47°33' W 002°51'0 0.0
2018-May-12 17:30N 47°33' W 002°51'2 3.4
2018-May-12 17:00N 47°34' W 002°52'2 3.9
2018-May-12 16:29N 47°36' W 002°51'0 0.0
2018-May-12 15:56N 47°36' W 002°51'0 0.0
2018-May-12 15:23N 47°36' W 002°51'0 0.0
2018-May-12 14:59N 47°36' W 002°51'0 0.0
2018-May-12 14:29N 47°36' W 002°51'0 0.0
2018-May-12 13:59N 47°36' W 002°51'0 0.0
2018-May-12 13:26N 47°36' W 002°51'0 0.0
2018-May-12 12:59N 47°36' W 002°51'0 0.0
2018-May-12 12:29N 47°36' W 002°51'0 0.0
2018-May-12 11:56N 47°36' W 002°51'0 0.0
2018-May-12 11:26N 47°36' W 002°51'1 2.9
2018-May-12 11:00N 47°35' W 002°52'4 7.4
2018-May-12 10:30N 47°32' W 002°56'4 7.6
2018-May-12 09:58N 47°29' W 002°59'3 6.4
2018-May-12 09:30N 47°27' W 003°02'3 6.4
2018-May-12 09:00N 47°25' W 003°06'4 6.8
2018-May-12 08:27N 47°23' W 003°11'  

Dump ship's entire track history